sensor_id;sensor_type;location;lat;lon;timestamp;P1;durP1;ratioP1;P2;durP2;ratioP2
10088;SDS011;51898;49.864;8.550;2022-10-16T00:01:49;8.63;;;4.10;;
10088;SDS011;51898;49.864;8.550;2022-10-16T00:04:50;5.50;;;4.27;;
10088;SDS011;51898;49.864;8.550;2022-10-16T00:07:52;5.40;;;4.40;;
10088;SDS011;51898;49.864;8.550;2022-10-16T00:10:58;7.40;;;4.93;;
10088;SDS011;51898;49.864;8.550;2022-10-16T00:14:02;6.50;;;4.77;;
10088;SDS011;51898;49.864;8.550;2022-10-16T00:17:06;5.23;;;4.30;;
10088;SDS011;51898;49.864;8.550;2022-10-16T00:20:07;5.40;;;4.47;;
10088;SDS011;51898;49.864;8.550;2022-10-16T00:23:09;12.53;;;4.30;;
10088;SDS011;51898;49.864;8.550;2022-10-16T00:26:12;6.10;;;4.00;;
10088;SDS011;51898;49.864;8.550;2022-10-16T00:29:15;6.60;;;4.50;;
10088;SDS011;51898;49.864;8.550;2022-10-16T00:32:17;6.17;;;3.97;;
10088;SDS011;51898;49.864;8.550;2022-10-16T00:35:20;6.67;;;4.50;;
10088;SDS011;51898;49.864;8.550;2022-10-16T00:38:21;7.70;;;3.83;;
10088;SDS011;51898;49.864;8.550;2022-10-16T00:41:27;5.03;;;3.60;;
10088;SDS011;51898;49.864;8.550;2022-10-16T00:44:48;7.50;;;3.97;;
10088;SDS011;51898;49.864;8.550;2022-10-16T00:47:55;3.70;;;3.30;;
10088;SDS011;51898;49.864;8.550;2022-10-16T00:50:57;3.73;;;2.70;;
10088;SDS011;51898;49.864;8.550;2022-10-16T00:54:00;3.40;;;2.83;;
10088;SDS011;51898;49.864;8.550;2022-10-16T00:57:04;4.50;;;2.27;;
10088;SDS011;51898;49.864;8.550;2022-10-16T01:03:34;4.10;;;1.90;;
10088;SDS011;51898;49.864;8.550;2022-10-16T01:06:47;2.30;;;2.10;;
10088;SDS011;51898;49.864;8.550;2022-10-16T01:13:18;3.70;;;1.57;;
10088;SDS011;51898;49.864;8.550;2022-10-16T01:16:34;3.50;;;1.73;;
10088;SDS011;51898;49.864;8.550;2022-10-16T01:30:20;2.87;;;1.50;;
10088;SDS011;51898;49.864;8.550;2022-10-16T01:33:26;1.93;;;1.07;;
10088;SDS011;51898;49.864;8.550;2022-10-16T01:36:34;1.67;;;0.87;;
10088;SDS011;51898;49.864;8.550;2022-10-16T01:39:50;1.63;;;1.17;;
10088;SDS011;51898;49.864;8.550;2022-10-16T01:43:00;1.77;;;1.03;;
10088;SDS011;51898;49.864;8.550;2022-10-16T01:46:06;1.20;;;1.10;;
10088;SDS011;51898;49.864;8.550;2022-10-16T01:49:10;1.37;;;1.10;;
10088;SDS011;51898;49.864;8.550;2022-10-16T01:52:15;2.70;;;1.20;;
10088;SDS011;51898;49.864;8.550;2022-10-16T01:55:30;1.73;;;1.30;;
10088;SDS011;51898;49.864;8.550;2022-10-16T01:58:38;1.30;;;1.20;;
10088;SDS011;51898;49.864;8.550;2022-10-16T02:01:45;2.10;;;1.37;;
10088;SDS011;51898;49.864;8.550;2022-10-16T02:05:01;2.10;;;1.17;;
10088;SDS011;51898;49.864;8.550;2022-10-16T02:08:06;1.83;;;1.30;;
10088;SDS011;51898;49.864;8.550;2022-10-16T02:11:07;4.63;;;1.80;;
10088;SDS011;51898;49.864;8.550;2022-10-16T02:14:09;3.30;;;1.97;;
10088;SDS011;51898;49.864;8.550;2022-10-16T02:17:12;3.47;;;1.77;;
10088;SDS011;51898;49.864;8.550;2022-10-16T02:20:15;3.23;;;2.37;;
10088;SDS011;51898;49.864;8.550;2022-10-16T02:23:19;5.73;;;2.00;;
10088;SDS011;51898;49.864;8.550;2022-10-16T02:26:41;2.93;;;2.40;;
10088;SDS011;51898;49.864;8.550;2022-10-16T02:29:51;2.47;;;2.27;;
10088;SDS011;51898;49.864;8.550;2022-10-16T02:32:59;3.30;;;2.20;;
10088;SDS011;51898;49.864;8.550;2022-10-16T02:36:03;3.60;;;2.50;;
10088;SDS011;51898;49.864;8.550;2022-10-16T02:39:06;3.20;;;2.60;;
10088;SDS011;51898;49.864;8.550;2022-10-16T02:42:12;4.60;;;2.80;;
10088;SDS011;51898;49.864;8.550;2022-10-16T02:45:14;4.10;;;2.40;;
10088;SDS011;51898;49.864;8.550;2022-10-16T02:48:16;4.27;;;2.80;;
10088;SDS011;51898;49.864;8.550;2022-10-16T02:51:18;5.13;;;3.07;;
10088;SDS011;51898;49.864;8.550;2022-10-16T02:54:19;4.27;;;3.17;;
10088;SDS011;51898;49.864;8.550;2022-10-16T02:57:21;5.10;;;2.90;;
10088;SDS011;51898;49.864;8.550;2022-10-16T03:00:23;7.43;;;3.70;;
10088;SDS011;51898;49.864;8.550;2022-10-16T03:03:25;8.13;;;3.50;;
10088;SDS011;51898;49.864;8.550;2022-10-16T03:06:26;5.83;;;3.80;;
10088;SDS011;51898;49.864;8.550;2022-10-16T03:09:28;5.00;;;4.30;;
10088;SDS011;51898;49.864;8.550;2022-10-16T03:12:30;7.00;;;4.17;;
10088;SDS011;51898;49.864;8.550;2022-10-16T03:15:31;8.83;;;4.30;;
10088;SDS011;51898;49.864;8.550;2022-10-16T03:18:33;4.23;;;3.67;;
10088;SDS011;51898;49.864;8.550;2022-10-16T03:21:35;4.80;;;3.63;;
10088;SDS011;51898;49.864;8.550;2022-10-16T03:24:36;4.63;;;3.70;;
10088;SDS011;51898;49.864;8.550;2022-10-16T03:27:38;4.20;;;3.10;;
10088;SDS011;51898;49.864;8.550;2022-10-16T03:30:40;4.53;;;3.00;;
10088;SDS011;51898;49.864;8.550;2022-10-16T03:33:44;5.47;;;3.43;;
10088;SDS011;51898;49.864;8.550;2022-10-16T03:36:46;3.10;;;2.57;;
10088;SDS011;51898;49.864;8.550;2022-10-16T03:39:47;3.57;;;2.70;;
10088;SDS011;51898;49.864;8.550;2022-10-16T03:42:49;4.70;;;3.97;;
10088;SDS011;51898;49.864;8.550;2022-10-16T03:45:51;5.07;;;3.70;;
10088;SDS011;51898;49.864;8.550;2022-10-16T03:48:52;5.07;;;3.30;;
10088;SDS011;51898;49.864;8.550;2022-10-16T03:51:54;4.40;;;3.80;;
10088;SDS011;51898;49.864;8.550;2022-10-16T03:54:55;4.47;;;3.77;;
10088;SDS011;51898;49.864;8.550;2022-10-16T03:57:57;14.00;;;4.50;;
10088;SDS011;51898;49.864;8.550;2022-10-16T04:00:59;4.70;;;4.30;;
10088;SDS011;51898;49.864;8.550;2022-10-16T04:04:00;4.60;;;3.80;;
10088;SDS011;51898;49.864;8.550;2022-10-16T04:07:02;6.23;;;4.00;;
10088;SDS011;51898;49.864;8.550;2022-10-16T04:10:04;5.30;;;4.27;;
10088;SDS011;51898;49.864;8.550;2022-10-16T04:13:06;6.33;;;4.20;;
10088;SDS011;51898;49.864;8.550;2022-10-16T04:16:07;7.57;;;5.00;;
10088;SDS011;51898;49.864;8.550;2022-10-16T04:19:10;7.23;;;5.20;;
10088;SDS011;51898;49.864;8.550;2022-10-16T04:22:12;10.07;;;6.13;;
10088;SDS011;51898;49.864;8.550;2022-10-16T04:25:13;9.80;;;6.43;;
10088;SDS011;51898;49.864;8.550;2022-10-16T04:28:15;8.17;;;6.77;;
10088;SDS011;51898;49.864;8.550;2022-10-16T04:31:17;10.03;;;7.10;;
10088;SDS011;51898;49.864;8.550;2022-10-16T04:34:18;11.27;;;6.73;;
10088;SDS011;51898;49.864;8.550;2022-10-16T04:37:23;9.73;;;7.00;;
10088;SDS011;51898;49.864;8.550;2022-10-16T04:40:26;9.70;;;7.10;;
10088;SDS011;51898;49.864;8.550;2022-10-16T04:43:27;9.37;;;7.27;;
10088;SDS011;51898;49.864;8.550;2022-10-16T04:46:34;8.20;;;6.07;;
10088;SDS011;51898;49.864;8.550;2022-10-16T04:49:35;6.83;;;6.17;;
10088;SDS011;51898;49.864;8.550;2022-10-16T04:52:37;9.70;;;6.30;;
10088;SDS011;51898;49.864;8.550;2022-10-16T04:55:39;9.20;;;5.53;;
10088;SDS011;51898;49.864;8.550;2022-10-16T04:58:42;7.30;;;5.20;;
10088;SDS011;51898;49.864;8.550;2022-10-16T05:01:44;8.53;;;4.90;;
10088;SDS011;51898;49.864;8.550;2022-10-16T05:04:46;6.30;;;5.17;;
10088;SDS011;51898;49.864;8.550;2022-10-16T05:07:47;9.70;;;5.40;;
10088;SDS011;51898;49.864;8.550;2022-10-16T05:10:50;9.13;;;4.77;;
10088;SDS011;51898;49.864;8.550;2022-10-16T05:13:52;9.17;;;5.57;;
10088;SDS011;51898;49.864;8.550;2022-10-16T05:16:56;6.67;;;4.70;;
10088;SDS011;51898;49.864;8.550;2022-10-16T05:19:58;8.80;;;5.60;;
10088;SDS011;51898;49.864;8.550;2022-10-16T05:22:59;7.13;;;6.00;;
10088;SDS011;51898;49.864;8.550;2022-10-16T05:26:01;6.27;;;5.13;;
10088;SDS011;51898;49.864;8.550;2022-10-16T05:29:03;12.60;;;5.67;;
10088;SDS011;51898;49.864;8.550;2022-10-16T05:32:05;5.60;;;5.00;;
10088;SDS011;51898;49.864;8.550;2022-10-16T05:35:06;8.83;;;5.63;;
10088;SDS011;51898;49.864;8.550;2022-10-16T05:38:13;7.70;;;5.77;;
10088;SDS011;51898;49.864;8.550;2022-10-16T05:41:14;7.60;;;5.80;;
10088;SDS011;51898;49.864;8.550;2022-10-16T05:44:16;10.77;;;5.00;;
10088;SDS011;51898;49.864;8.550;2022-10-16T05:47:17;8.80;;;5.80;;
10088;SDS011;51898;49.864;8.550;2022-10-16T05:50:21;7.83;;;5.43;;
10088;SDS011;51898;49.864;8.550;2022-10-16T05:53:23;7.70;;;5.40;;
10088;SDS011;51898;49.864;8.550;2022-10-16T05:56:26;6.93;;;5.73;;
10088;SDS011;51898;49.864;8.550;2022-10-16T05:59:28;8.37;;;5.63;;
10088;SDS011;51898;49.864;8.550;2022-10-16T06:02:29;8.03;;;6.10;;
10088;SDS011;51898;49.864;8.550;2022-10-16T06:05:31;6.53;;;5.50;;
10088;SDS011;51898;49.864;8.550;2022-10-16T06:08:32;8.33;;;6.17;;
10088;SDS011;51898;49.864;8.550;2022-10-16T06:11:34;10.03;;;6.40;;
10088;SDS011;51898;49.864;8.550;2022-10-16T06:14:37;9.80;;;5.70;;
10088;SDS011;51898;49.864;8.550;2022-10-16T06:17:38;8.87;;;6.60;;
10088;SDS011;51898;49.864;8.550;2022-10-16T06:20:40;13.27;;;6.63;;
10088;SDS011;51898;49.864;8.550;2022-10-16T06:23:42;9.57;;;6.20;;
10088;SDS011;51898;49.864;8.550;2022-10-16T06:26:44;7.33;;;6.40;;
10088;SDS011;51898;49.864;8.550;2022-10-16T06:29:45;7.67;;;6.33;;
10088;SDS011;51898;49.864;8.550;2022-10-16T06:32:47;8.73;;;6.00;;
10088;SDS011;51898;49.864;8.550;2022-10-16T06:35:48;9.30;;;6.50;;
10088;SDS011;51898;49.864;8.550;2022-10-16T06:38:50;7.00;;;5.10;;
10088;SDS011;51898;49.864;8.550;2022-10-16T06:41:52;7.00;;;5.33;;
10088;SDS011;51898;49.864;8.550;2022-10-16T06:44:53;9.67;;;6.83;;
10088;SDS011;51898;49.864;8.550;2022-10-16T06:47:55;6.23;;;5.50;;
10088;SDS011;51898;49.864;8.550;2022-10-16T06:51:13;9.70;;;6.00;;
10088;SDS011;51898;49.864;8.550;2022-10-16T06:54:19;7.47;;;5.87;;
10088;SDS011;51898;49.864;8.550;2022-10-16T06:57:20;9.10;;;4.97;;
10088;SDS011;51898;49.864;8.550;2022-10-16T07:00:22;16.67;;;8.47;;
10088;SDS011;51898;49.864;8.550;2022-10-16T07:03:24;8.37;;;5.80;;
10088;SDS011;51898;49.864;8.550;2022-10-16T07:06:26;7.07;;;6.00;;
10088;SDS011;51898;49.864;8.550;2022-10-16T07:09:31;8.17;;;4.87;;
10088;SDS011;51898;49.864;8.550;2022-10-16T07:12:33;5.33;;;4.83;;
10088;SDS011;51898;49.864;8.550;2022-10-16T07:15:34;11.07;;;5.17;;
10088;SDS011;51898;49.864;8.550;2022-10-16T07:18:36;6.13;;;4.67;;
10088;SDS011;51898;49.864;8.550;2022-10-16T07:21:40;6.07;;;4.67;;
10088;SDS011;51898;49.864;8.550;2022-10-16T07:24:42;8.33;;;5.17;;
10088;SDS011;51898;49.864;8.550;2022-10-16T07:27:48;8.77;;;4.67;;
10088;SDS011;51898;49.864;8.550;2022-10-16T07:30:49;7.47;;;5.03;;
10088;SDS011;51898;49.864;8.550;2022-10-16T07:33:51;9.90;;;5.00;;
10088;SDS011;51898;49.864;8.550;2022-10-16T07:36:53;18.87;;;5.73;;
10088;SDS011;51898;49.864;8.550;2022-10-16T07:39:55;10.07;;;5.23;;
10088;SDS011;51898;49.864;8.550;2022-10-16T07:42:56;9.17;;;4.60;;
10088;SDS011;51898;49.864;8.550;2022-10-16T07:45:58;7.47;;;4.77;;
10088;SDS011;51898;49.864;8.550;2022-10-16T07:49:05;7.20;;;4.53;;
10088;SDS011;51898;49.864;8.550;2022-10-16T07:52:07;4.60;;;4.10;;
10088;SDS011;51898;49.864;8.550;2022-10-16T07:55:08;4.73;;;4.23;;
10088;SDS011;51898;49.864;8.550;2022-10-16T07:58:10;18.50;;;4.83;;
10088;SDS011;51898;49.864;8.550;2022-10-16T08:01:13;4.70;;;4.30;;
10088;SDS011;51898;49.864;8.550;2022-10-16T08:04:16;4.87;;;3.83;;
10088;SDS011;51898;49.864;8.550;2022-10-16T08:07:17;6.60;;;4.00;;
10088;SDS011;51898;49.864;8.550;2022-10-16T08:10:20;11.13;;;5.27;;
10088;SDS011;51898;49.864;8.550;2022-10-16T08:13:23;4.90;;;3.70;;
10088;SDS011;51898;49.864;8.550;2022-10-16T08:16:24;6.50;;;4.00;;
10088;SDS011;51898;49.864;8.550;2022-10-16T08:19:26;8.00;;;4.80;;
10088;SDS011;51898;49.864;8.550;2022-10-16T08:22:28;6.77;;;3.43;;
10088;SDS011;51898;49.864;8.550;2022-10-16T08:25:30;7.83;;;4.43;;
10088;SDS011;51898;49.864;8.550;2022-10-16T08:28:31;5.00;;;4.57;;
10088;SDS011;51898;49.864;8.550;2022-10-16T08:31:33;6.43;;;4.20;;
10088;SDS011;51898;49.864;8.550;2022-10-16T08:34:35;11.83;;;4.93;;
10088;SDS011;51898;49.864;8.550;2022-10-16T08:37:36;6.70;;;4.80;;
10088;SDS011;51898;49.864;8.550;2022-10-16T08:40:38;7.23;;;4.40;;
10088;SDS011;51898;49.864;8.550;2022-10-16T08:50:46;6.73;;;4.37;;
10088;SDS011;51898;49.864;8.550;2022-10-16T08:56:55;5.23;;;4.73;;
10088;SDS011;51898;49.864;8.550;2022-10-16T09:00:00;4.97;;;4.50;;
10088;SDS011;51898;49.864;8.550;2022-10-16T09:03:24;6.10;;;4.97;;
10088;SDS011;51898;49.864;8.550;2022-10-16T09:09:49;7.60;;;5.37;;
10088;SDS011;51898;49.864;8.550;2022-10-16T09:16:28;6.80;;;5.60;;
10088;SDS011;51898;49.864;8.550;2022-10-16T09:19:41;5.73;;;4.67;;
10088;SDS011;51898;49.864;8.550;2022-10-16T09:22:51;6.70;;;5.00;;
10088;SDS011;51898;49.864;8.550;2022-10-16T09:25:56;6.10;;;4.30;;
10088;SDS011;51898;49.864;8.550;2022-10-16T09:28:59;6.73;;;4.53;;
10088;SDS011;51898;49.864;8.550;2022-10-16T09:32:12;5.60;;;4.50;;
10088;SDS011;51898;49.864;8.550;2022-10-16T09:35:22;5.33;;;4.40;;
10088;SDS011;51898;49.864;8.550;2022-10-16T09:38:29;4.77;;;3.80;;
10088;SDS011;51898;49.864;8.550;2022-10-16T09:41:35;5.20;;;3.83;;
10088;SDS011;51898;49.864;8.550;2022-10-16T09:44:40;4.20;;;3.60;;
10088;SDS011;51898;49.864;8.550;2022-10-16T09:47:42;7.40;;;4.30;;
10088;SDS011;51898;49.864;8.550;2022-10-16T09:50:54;4.43;;;4.03;;
10088;SDS011;51898;49.864;8.550;2022-10-16T09:57:11;8.10;;;4.20;;
10088;SDS011;51898;49.864;8.550;2022-10-16T10:00:15;5.83;;;4.20;;
10088;SDS011;51898;49.864;8.550;2022-10-16T10:03:28;5.57;;;3.63;;
10088;SDS011;51898;49.864;8.550;2022-10-16T10:06:43;4.40;;;4.00;;
10088;SDS011;51898;49.864;8.550;2022-10-16T10:09:48;4.50;;;3.50;;
10088;SDS011;51898;49.864;8.550;2022-10-16T10:12:49;3.70;;;3.30;;
10088;SDS011;51898;49.864;8.550;2022-10-16T10:15:51;6.30;;;3.67;;
10088;SDS011;51898;49.864;8.550;2022-10-16T10:18:57;3.73;;;3.30;;
10088;SDS011;51898;49.864;8.550;2022-10-16T10:22:00;3.80;;;3.07;;
10088;SDS011;51898;49.864;8.550;2022-10-16T10:31:17;3.27;;;2.60;;
10088;SDS011;51898;49.864;8.550;2022-10-16T10:34:38;3.70;;;2.90;;
10088;SDS011;51898;49.864;8.550;2022-10-16T10:41:21;5.50;;;3.50;;
10088;SDS011;51898;49.864;8.550;2022-10-16T11:01:56;4.63;;;4.07;;
10088;SDS011;51898;49.864;8.550;2022-10-16T11:05:25;4.00;;;3.40;;
10088;SDS011;51898;49.864;8.550;2022-10-16T11:08:41;3.60;;;3.03;;
10088;SDS011;51898;49.864;8.550;2022-10-16T11:11:51;4.87;;;3.33;;
10088;SDS011;51898;49.864;8.550;2022-10-16T11:15:14;3.33;;;3.00;;
10088;SDS011;51898;49.864;8.550;2022-10-16T11:18:24;5.50;;;3.30;;
10088;SDS011;51898;49.864;8.550;2022-10-16T11:21:36;3.20;;;2.90;;
10088;SDS011;51898;49.864;8.550;2022-10-16T11:28:20;3.57;;;2.70;;
10088;SDS011;51898;49.864;8.550;2022-10-16T11:31:39;3.73;;;3.03;;
10088;SDS011;51898;49.864;8.550;2022-10-16T11:34:44;3.20;;;2.50;;
10088;SDS011;51898;49.864;8.550;2022-10-16T11:37:51;3.10;;;2.90;;
10088;SDS011;51898;49.864;8.550;2022-10-16T11:40:59;4.57;;;3.50;;
10088;SDS011;51898;49.864;8.550;2022-10-16T11:47:45;2.87;;;2.57;;
10088;SDS011;51898;49.864;8.550;2022-10-16T11:51:11;5.10;;;3.30;;
10088;SDS011;51898;49.864;8.550;2022-10-16T11:54:24;6.00;;;3.87;;
10088;SDS011;51898;49.864;8.550;2022-10-16T11:57:38;4.80;;;4.13;;
10088;SDS011;51898;49.864;8.550;2022-10-16T12:01:28;4.20;;;3.30;;
10088;SDS011;51898;49.864;8.550;2022-10-16T12:04:29;3.13;;;2.93;;
10088;SDS011;51898;49.864;8.550;2022-10-16T12:07:56;3.40;;;3.10;;
10088;SDS011;51898;49.864;8.550;2022-10-16T12:11:19;3.87;;;2.77;;
10088;SDS011;51898;49.864;8.550;2022-10-16T12:14:35;6.07;;;2.87;;
10088;SDS011;51898;49.864;8.550;2022-10-16T12:17:58;3.30;;;3.00;;
10088;SDS011;51898;49.864;8.550;2022-10-16T12:21:00;3.80;;;2.80;;
10088;SDS011;51898;49.864;8.550;2022-10-16T12:24:06;4.03;;;3.10;;
10088;SDS011;51898;49.864;8.550;2022-10-16T12:27:41;3.43;;;3.13;;
10088;SDS011;51898;49.864;8.550;2022-10-16T12:30:43;5.03;;;3.40;;
10088;SDS011;51898;49.864;8.550;2022-10-16T12:33:58;9.93;;;3.60;;
10088;SDS011;51898;49.864;8.550;2022-10-16T12:37:10;5.47;;;4.50;;
10088;SDS011;51898;49.864;8.550;2022-10-16T12:43:40;3.50;;;3.20;;
10088;SDS011;51898;49.864;8.550;2022-10-16T12:46:47;4.50;;;3.07;;
10088;SDS011;51898;49.864;8.550;2022-10-16T12:49:49;3.27;;;2.90;;
10088;SDS011;51898;49.864;8.550;2022-10-16T12:52:53;3.70;;;3.40;;
10088;SDS011;51898;49.864;8.550;2022-10-16T12:56:03;3.70;;;3.40;;
10088;SDS011;51898;49.864;8.550;2022-10-16T12:59:18;3.60;;;3.30;;
10088;SDS011;51898;49.864;8.550;2022-10-16T13:06:37;5.60;;;4.93;;
10088;SDS011;51898;49.864;8.550;2022-10-16T13:10:00;4.57;;;3.40;;
10088;SDS011;51898;49.864;8.550;2022-10-16T13:17:01;5.13;;;3.90;;
10088;SDS011;51898;49.864;8.550;2022-10-16T13:20:30;6.83;;;4.20;;
10088;SDS011;51898;49.864;8.550;2022-10-16T13:23:43;5.20;;;3.50;;
10088;SDS011;51898;49.864;8.550;2022-10-16T13:30:09;3.63;;;3.40;;
10088;SDS011;51898;49.864;8.550;2022-10-16T13:33:33;4.13;;;3.57;;
10088;SDS011;51898;49.864;8.550;2022-10-16T13:36:44;4.20;;;3.87;;
10088;SDS011;51898;49.864;8.550;2022-10-16T13:43:29;5.23;;;4.40;;
10088;SDS011;51898;49.864;8.550;2022-10-16T13:46:40;4.07;;;3.77;;
10088;SDS011;51898;49.864;8.550;2022-10-16T13:49:42;4.20;;;3.63;;
10088;SDS011;51898;49.864;8.550;2022-10-16T13:52:43;3.73;;;3.37;;
10088;SDS011;51898;49.864;8.550;2022-10-16T13:55:45;3.90;;;3.60;;
10088;SDS011;51898;49.864;8.550;2022-10-16T13:58:57;4.60;;;3.60;;
10088;SDS011;51898;49.864;8.550;2022-10-16T14:02:00;9.60;;;3.87;;
10088;SDS011;51898;49.864;8.550;2022-10-16T14:05:15;5.30;;;4.10;;
10088;SDS011;51898;49.864;8.550;2022-10-16T14:08:17;4.60;;;4.20;;
10088;SDS011;51898;49.864;8.550;2022-10-16T14:11:20;5.30;;;4.20;;
10088;SDS011;51898;49.864;8.550;2022-10-16T14:14:24;4.87;;;4.10;;
10088;SDS011;51898;49.864;8.550;2022-10-16T14:17:32;4.00;;;3.70;;
10088;SDS011;51898;49.864;8.550;2022-10-16T14:20:36;7.03;;;4.03;;
10088;SDS011;51898;49.864;8.550;2022-10-16T14:23:38;6.27;;;3.90;;
10088;SDS011;51898;49.864;8.550;2022-10-16T14:26:44;4.13;;;3.70;;
10088;SDS011;51898;49.864;8.550;2022-10-16T14:30:01;4.30;;;3.90;;
10088;SDS011;51898;49.864;8.550;2022-10-16T14:33:24;5.03;;;3.63;;
10088;SDS011;51898;49.864;8.550;2022-10-16T14:36:29;5.80;;;3.53;;
10088;SDS011;51898;49.864;8.550;2022-10-16T14:39:31;6.43;;;4.40;;
10088;SDS011;51898;49.864;8.550;2022-10-16T14:42:33;4.90;;;3.70;;
10088;SDS011;51898;49.864;8.550;2022-10-16T14:45:35;4.10;;;3.70;;
10088;SDS011;51898;49.864;8.550;2022-10-16T14:48:40;5.63;;;3.30;;
10088;SDS011;51898;49.864;8.550;2022-10-16T14:51:47;5.20;;;3.30;;
10088;SDS011;51898;49.864;8.550;2022-10-16T14:54:49;3.87;;;3.50;;
10088;SDS011;51898;49.864;8.550;2022-10-16T14:57:51;3.93;;;3.43;;
10088;SDS011;51898;49.864;8.550;2022-10-16T15:00:59;5.00;;;4.30;;
10088;SDS011;51898;49.864;8.550;2022-10-16T15:04:01;3.77;;;3.40;;
10088;SDS011;51898;49.864;8.550;2022-10-16T15:07:03;4.17;;;3.70;;
10088;SDS011;51898;49.864;8.550;2022-10-16T15:10:04;11.03;;;3.97;;
10088;SDS011;51898;49.864;8.550;2022-10-16T15:13:06;5.07;;;4.17;;
10088;SDS011;51898;49.864;8.550;2022-10-16T15:16:15;4.23;;;3.43;;
10088;SDS011;51898;49.864;8.550;2022-10-16T15:19:17;3.90;;;3.50;;
10088;SDS011;51898;49.864;8.550;2022-10-16T15:22:19;7.33;;;4.13;;
10088;SDS011;51898;49.864;8.550;2022-10-16T15:25:29;4.97;;;4.07;;
10088;SDS011;51898;49.864;8.550;2022-10-16T15:28:34;8.40;;;4.10;;
10088;SDS011;51898;49.864;8.550;2022-10-16T15:31:37;4.83;;;3.83;;
10088;SDS011;51898;49.864;8.550;2022-10-16T15:34:38;6.47;;;3.80;;
10088;SDS011;51898;49.864;8.550;2022-10-16T15:37:40;8.97;;;3.13;;
10088;SDS011;51898;49.864;8.550;2022-10-16T15:40:42;4.30;;;3.60;;
10088;SDS011;51898;49.864;8.550;2022-10-16T15:43:44;4.23;;;3.83;;
10088;SDS011;51898;49.864;8.550;2022-10-16T15:46:46;6.43;;;3.43;;
10088;SDS011;51898;49.864;8.550;2022-10-16T15:49:47;7.90;;;4.27;;
10088;SDS011;51898;49.864;8.550;2022-10-16T15:52:49;3.63;;;3.30;;
10088;SDS011;51898;49.864;8.550;2022-10-16T15:55:51;3.80;;;3.40;;
10088;SDS011;51898;49.864;8.550;2022-10-16T15:58:53;6.03;;;3.70;;
10088;SDS011;51898;49.864;8.550;2022-10-16T16:01:55;5.80;;;3.40;;
10088;SDS011;51898;49.864;8.550;2022-10-16T16:04:57;10.53;;;3.43;;
10088;SDS011;51898;49.864;8.550;2022-10-16T16:07:58;6.07;;;4.23;;
10088;SDS011;51898;49.864;8.550;2022-10-16T16:11:01;5.63;;;4.40;;
10088;SDS011;51898;49.864;8.550;2022-10-16T16:14:06;4.97;;;4.20;;
10088;SDS011;51898;49.864;8.550;2022-10-16T16:17:11;6.73;;;4.53;;
10088;SDS011;51898;49.864;8.550;2022-10-16T16:20:12;7.90;;;4.47;;
10088;SDS011;51898;49.864;8.550;2022-10-16T16:23:14;4.73;;;4.23;;
10088;SDS011;51898;49.864;8.550;2022-10-16T16:26:23;4.63;;;4.23;;
10088;SDS011;51898;49.864;8.550;2022-10-16T16:29:30;5.30;;;3.90;;
10088;SDS011;51898;49.864;8.550;2022-10-16T16:32:32;5.33;;;4.40;;
10088;SDS011;51898;49.864;8.550;2022-10-16T16:35:40;4.80;;;4.40;;
10088;SDS011;51898;49.864;8.550;2022-10-16T16:38:42;8.77;;;4.20;;
10088;SDS011;51898;49.864;8.550;2022-10-16T16:41:43;7.67;;;5.20;;
10088;SDS011;51898;49.864;8.550;2022-10-16T16:44:47;5.77;;;4.30;;
10088;SDS011;51898;49.864;8.550;2022-10-16T16:47:49;6.10;;;4.17;;
10088;SDS011;51898;49.864;8.550;2022-10-16T16:50:50;7.80;;;4.23;;
10088;SDS011;51898;49.864;8.550;2022-10-16T16:53:52;4.73;;;4.23;;
10088;SDS011;51898;49.864;8.550;2022-10-16T16:56:55;4.80;;;4.13;;
10088;SDS011;51898;49.864;8.550;2022-10-16T16:59:57;8.67;;;4.60;;
10088;SDS011;51898;49.864;8.550;2022-10-16T17:02:58;5.73;;;4.23;;
10088;SDS011;51898;49.864;8.550;2022-10-16T17:06:01;6.77;;;4.73;;
10088;SDS011;51898;49.864;8.550;2022-10-16T17:09:04;5.70;;;5.17;;
10088;SDS011;51898;49.864;8.550;2022-10-16T17:12:07;6.30;;;4.80;;
10088;SDS011;51898;49.864;8.550;2022-10-16T17:15:09;14.63;;;5.70;;
10088;SDS011;51898;49.864;8.550;2022-10-16T17:18:10;8.43;;;6.30;;
10088;SDS011;51898;49.864;8.550;2022-10-16T17:21:12;10.30;;;5.53;;
10088;SDS011;51898;49.864;8.550;2022-10-16T17:24:14;11.53;;;8.23;;
10088;SDS011;51898;49.864;8.550;2022-10-16T17:27:15;10.67;;;6.80;;
10088;SDS011;51898;49.864;8.550;2022-10-16T17:30:17;7.63;;;6.63;;
10088;SDS011;51898;49.864;8.550;2022-10-16T17:33:19;16.23;;;9.10;;
10088;SDS011;51898;49.864;8.550;2022-10-16T17:36:21;11.67;;;9.60;;
10088;SDS011;51898;49.864;8.550;2022-10-16T17:39:23;12.70;;;8.00;;
10088;SDS011;51898;49.864;8.550;2022-10-16T17:42:24;8.93;;;8.00;;
10088;SDS011;51898;49.864;8.550;2022-10-16T17:45:27;13.90;;;9.37;;
10088;SDS011;51898;49.864;8.550;2022-10-16T17:48:29;17.03;;;13.73;;
10088;SDS011;51898;49.864;8.550;2022-10-16T17:51:31;13.23;;;11.80;;
10088;SDS011;51898;49.864;8.550;2022-10-16T17:54:32;11.73;;;10.60;;
10088;SDS011;51898;49.864;8.550;2022-10-16T17:57:34;14.60;;;10.73;;
10088;SDS011;51898;49.864;8.550;2022-10-16T18:00:36;13.07;;;10.73;;
10088;SDS011;51898;49.864;8.550;2022-10-16T18:03:37;12.50;;;9.70;;
10088;SDS011;51898;49.864;8.550;2022-10-16T18:06:40;11.43;;;8.23;;
10088;SDS011;51898;49.864;8.550;2022-10-16T18:09:42;14.20;;;8.70;;
10088;SDS011;51898;49.864;8.550;2022-10-16T18:13:09;11.60;;;6.60;;
10088;SDS011;51898;49.864;8.550;2022-10-16T18:16:11;12.83;;;6.80;;
10088;SDS011;51898;49.864;8.550;2022-10-16T18:19:15;8.83;;;6.30;;
10088;SDS011;51898;49.864;8.550;2022-10-16T18:22:16;10.63;;;6.90;;
10088;SDS011;51898;49.864;8.550;2022-10-16T18:25:18;9.30;;;6.80;;
10088;SDS011;51898;49.864;8.550;2022-10-16T18:28:20;7.27;;;6.40;;
10088;SDS011;51898;49.864;8.550;2022-10-16T18:31:22;6.40;;;5.73;;
10088;SDS011;51898;49.864;8.550;2022-10-16T18:34:27;12.33;;;8.67;;
10088;SDS011;51898;49.864;8.550;2022-10-16T18:37:28;7.70;;;5.67;;
10088;SDS011;51898;49.864;8.550;2022-10-16T18:40:30;10.63;;;6.70;;
10088;SDS011;51898;49.864;8.550;2022-10-16T18:43:32;11.33;;;7.20;;
10088;SDS011;51898;49.864;8.550;2022-10-16T18:46:35;8.90;;;6.37;;
10088;SDS011;51898;49.864;8.550;2022-10-16T18:49:37;10.47;;;7.47;;
10088;SDS011;51898;49.864;8.550;2022-10-16T18:52:45;14.70;;;7.57;;
10088;SDS011;51898;49.864;8.550;2022-10-16T18:55:51;11.97;;;7.20;;
10088;SDS011;51898;49.864;8.550;2022-10-16T18:58:53;10.73;;;8.07;;
10088;SDS011;51898;49.864;8.550;2022-10-16T19:01:55;9.90;;;7.20;;
10088;SDS011;51898;49.864;8.550;2022-10-16T19:04:57;11.57;;;8.90;;
10088;SDS011;51898;49.864;8.550;2022-10-16T19:08:05;9.87;;;7.70;;
10088;SDS011;51898;49.864;8.550;2022-10-16T19:11:08;11.90;;;8.30;;
10088;SDS011;51898;49.864;8.550;2022-10-16T19:14:12;8.97;;;8.07;;
10088;SDS011;51898;49.864;8.550;2022-10-16T19:17:15;10.13;;;7.83;;
10088;SDS011;51898;49.864;8.550;2022-10-16T19:20:17;11.40;;;6.93;;
10088;SDS011;51898;49.864;8.550;2022-10-16T19:23:19;8.20;;;6.67;;
10088;SDS011;51898;49.864;8.550;2022-10-16T19:26:21;15.07;;;8.30;;
10088;SDS011;51898;49.864;8.550;2022-10-16T19:29:23;10.73;;;9.47;;
10088;SDS011;51898;49.864;8.550;2022-10-16T19:32:25;15.53;;;9.90;;
10088;SDS011;51898;49.864;8.550;2022-10-16T19:35:27;12.90;;;7.10;;
10088;SDS011;51898;49.864;8.550;2022-10-16T19:38:29;10.90;;;8.33;;
10088;SDS011;51898;49.864;8.550;2022-10-16T19:41:30;9.33;;;7.20;;
10088;SDS011;51898;49.864;8.550;2022-10-16T19:44:32;10.17;;;7.70;;
10088;SDS011;51898;49.864;8.550;2022-10-16T19:47:34;14.87;;;9.00;;
10088;SDS011;51898;49.864;8.550;2022-10-16T19:50:36;11.50;;;8.37;;
10088;SDS011;51898;49.864;8.550;2022-10-16T19:53:45;12.07;;;6.10;;
10088;SDS011;51898;49.864;8.550;2022-10-16T19:56:49;11.30;;;6.90;;
10088;SDS011;51898;49.864;8.550;2022-10-16T19:59:51;10.87;;;6.70;;
10088;SDS011;51898;49.864;8.550;2022-10-16T20:02:53;15.07;;;7.50;;